Time;durP1;ratioP1;P1;durP2;ratioP2;P2;SDS_P1;SDS_P2;PMS_P1;PMS_P2;Temp;Humidity;BMP_temperature;BMP_pressure;BME280_temperature;BME280_humidity;BME280_pressure;Samples;Min_cycle;Max_cycle;Signal;HPM_P1;HPM_P2
2023/07/24 00:00:20;;;;;;;14.10;10.00;;;;;;;21.40;54.08;99976.67;108002;1254;71466;-66
2023/07/24 00:02:48;;;;;;;13.90;9.40;;;;;;;21.45;53.90;99975.30;108079;1254;61702;-67
2023/07/24 00:05:15;;;;;;;15.50;10.30;;;;;;;21.43;53.85;99975.70;108082;1254;61100;-64
2023/07/24 00:07:43;;;;;;;21.90;11.10;;;;;;;21.39;53.83;99973.52;108068;1254;73795;-66
2023/07/24 00:10:10;;;;;;;14.00;10.10;;;;;;;21.35;54.04;99970.66;108139;1254;70151;-69
2023/07/24 00:12:37;;;;;;;17.70;10.60;;;;;;;21.28;54.28;99967.16;108032;1254;73588;-66
2023/07/24 00:15:06;;;;;;;20.40;10.60;;;;;;;21.26;54.24;99966.19;108078;1254;61683;-68
2023/07/24 00:17:33;;;;;;;13.70;10.30;;;;;;;21.49;53.72;99959.83;108137;1254;60503;-65
2023/07/24 00:20:00;;;;;;;17.10;11.10;;;;;;;21.48;53.69;99956.17;108095;1254;73851;-68
2023/07/24 00:22:28;;;;;;;15.90;8.60;;;;;;;21.48;53.68;99954.75;108128;1254;70301;-70
2023/07/24 00:24:55;;;;;;;17.90;10.10;;;;;;;21.50;53.57;99953.98;108193;1254;72623;-68
2023/07/24 00:27:23;;;;;;;13.90;10.20;;;;;;;21.50;53.69;99949.70;108174;1254;61606;-66
2023/07/24 00:29:50;;;;;;;15.80;9.10;;;;;;;21.47;53.68;99950.13;108144;1253;60342;-69
2023/07/24 00:32:18;;;;;;;18.80;10.70;;;;;;;21.55;53.46;99948.94;108139;1254;73896;-68
2023/07/24 00:34:45;;;;;;;16.70;8.70;;;;;;;21.49;53.66;99948.71;108133;1253;69911;-68
2023/07/24 00:37:12;;;;;;;16.20;10.20;;;;;;;21.37;54.00;99947.98;108132;1254;72879;-67
2023/07/24 00:39:40;;;;;;;17.50;10.40;;;;;;;21.36;53.90;99946.77;108168;1254;61609;-68
2023/07/24 00:42:07;;;;;;;14.90;8.70;;;;;;;21.41;53.76;99941.22;108050;1254;60806;-69
2023/07/24 00:44:34;;;;;;;19.30;10.50;;;;;;;21.38;53.83;99938.27;108008;1253;73832;-66
2023/07/24 00:47:02;;;;;;;22.60;12.40;;;;;;;21.18;54.28;99938.69;108019;1254;68679;-68
2023/07/24 00:49:29;;;;;;;11.10;8.10;;;;;;;21.24;54.18;99943.02;108136;1253;71447;-65
2023/07/24 00:51:57;;;;;;;16.80;10.90;;;;;;;21.30;54.00;99937.63;108137;1253;61656;-64
2023/07/24 00:54:25;;;;;;;14.10;8.60;;;;;;;21.12;54.53;99940.07;108058;1253;60430;-67
2023/07/24 00:56:53;;;;;;;16.90;11.20;;;;;;;20.99;54.77;99939.17;107907;1254;73815;-70
2023/07/24 00:59:20;;;;;;;30.70;12.60;;;;;;;20.74;55.41;99937.30;107766;1254;70605;-68
2023/07/24 01:01:48;;;;;;;13.80;10.10;;;;;;;20.70;55.63;99934.08;108030;1254;72690;-69
2023/07/24 01:04:15;;;;;;;16.90;11.50;;;;;;;20.69;55.64;99933.86;108013;1253;60498;-69
2023/07/24 01:06:43;;;;;;;16.20;10.40;;;;;;;20.62;55.62;99927.95;108103;1254;59138;-69
2023/07/24 01:09:10;;;;;;;18.40;10.70;;;;;;;20.56;55.97;99927.20;108173;1253;73843;-68
2023/07/24 01:12:08;;;;;;;17.60;11.10;;;;;;;20.58;56.05;99924.40;108126;1253;69413;-69
2023/07/24 01:15:12;;;;;;;13.60;9.40;;;;;;;20.56;56.10;99927.20;108046;1254;71674;-67
2023/07/24 01:17:42;;;;;;;19.30;10.30;;;;;;;20.54;56.23;99928.58;107753;1263;61735;-68
2023/07/24 01:20:11;;;;;;;19.40;10.80;;;;;;;20.56;56.30;99928.48;108049;1254;60362;-68
2023/07/24 01:22:40;;;;;;;14.40;8.30;;;;;;;20.49;56.35;99927.98;108195;1254;74374;-69
2023/07/24 01:25:11;;;;;;;15.20;10.50;;;;;;;20.38;56.71;99929.41;108099;1253;68711;-68
2023/07/24 01:27:45;;;;;;;16.50;11.80;;;;;;;20.44;56.43;99928.23;108052;1254;72503;-68
2023/07/24 01:30:18;;;;;;;13.60;9.60;;;;;;;20.41;56.33;99929.66;108238;1253;61840;-68
2023/07/24 01:32:47;;;;;;;15.70;10.30;;;;;;;20.40;56.48;99928.16;108185;1254;60316;-69
2023/07/24 01:35:16;;;;;;;15.00;11.60;;;;;;;20.42;56.33;99930.29;108195;1254;74816;-68
2023/07/24 01:37:43;;;;;;;14.80;9.10;;;;;;;20.45;56.33;99930.21;108127;1253;67858;-69
2023/07/24 01:40:11;;;;;;;16.20;11.20;;;;;;;20.34;56.73;99929.17;108044;1254;73276;-69
2023/07/24 01:42:38;;;;;;;18.60;10.80;;;;;;;20.37;56.61;99929.06;108154;1253;60442;-69
2023/07/24 01:45:07;;;;;;;14.70;10.40;;;;;;;20.46;56.45;99928.17;108006;1254;60372;-68
2023/07/24 01:47:34;;;;;;;14.20;10.30;;;;;;;20.46;56.44;99928.14;108220;1254;73242;-67
2023/07/24 01:50:02;;;;;;;15.20;9.00;;;;;;;20.47;56.55;99930.05;108226;1253;70181;-65
2023/07/24 01:52:29;;;;;;;17.90;11.20;;;;;;;20.43;56.61;99930.02;108166;1253;71411;-67
2023/07/24 01:54:57;;;;;;;18.40;10.70;;;;;;;20.48;56.47;99935.00;108165;1254;61684;-65
2023/07/24 01:57:24;;;;;;;12.60;9.10;;;;;;;20.28;57.07;99936.80;108147;1253;60323;-68
2023/07/24 01:59:52;;;;;;;13.90;11.00;;;;;;;20.16;57.43;99935.77;108081;1253;73814;-68
2023/07/24 02:02:19;;;;;;;14.80;11.10;;;;;;;20.19;57.37;99936.24;108036;1253;70746;-68
2023/07/24 02:04:47;;;;;;;18.30;11.20;;;;;;;20.25;57.38;99943.77;108152;1253;70463;-68
2023/07/24 02:07:14;;;;;;;17.70;11.80;;;;;;;20.31;57.16;99942.77;108086;1252;61655;-70
2023/07/24 02:09:42;;;;;;;14.80;10.20;;;;;;;20.45;57.01;99944.69;108250;1253;60252;-68
2023/07/24 02:12:09;;;;;;;20.90;12.60;;;;;;;20.50;56.89;99947.46;108210;1252;74330;-68
2023/07/24 02:14:37;;;;;;;13.90;8.90;;;;;;;20.54;56.82;99950.88;108107;1258;69130;-69
2023/07/24 02:17:04;;;;;;;13.90;10.00;;;;;;;20.61;56.75;99954.48;108182;1254;71388;-69
2023/07/24 02:19:32;;;;;;;17.30;10.50;;;;;;;20.46;57.06;99954.75;108165;1252;62022;-70
2023/07/24 02:21:59;;;;;;;14.70;10.60;;;;;;;20.40;57.17;99952.73;108207;1256;60533;-69
2023/07/24 02:24:27;;;;;;;15.10;11.40;;;;;;;20.35;57.29;99947.83;108189;1254;73810;-69
2023/07/24 02:26:54;;;;;;;14.30;10.20;;;;;;;20.36;57.22;99945.60;108162;1254;68976;-69
2023/07/24 02:29:22;;;;;;;11.30;9.10;;;;;;;20.42;57.13;99952.64;108138;1254;72814;-69
2023/07/24 02:31:50;;;;;;;15.00;11.10;;;;;;;20.37;57.32;99954.09;108148;1254;61689;-68
2023/07/24 02:34:17;;;;;;;15.10;10.80;;;;;;;20.56;57.08;99953.27;108061;1252;60303;-68
2023/07/24 02:36:45;;;;;;;22.10;12.50;;;;;;;20.60;56.80;99954.72;108157;1253;73849;-68
2023/07/24 02:39:12;;;;;;;15.70;11.50;;;;;;;20.65;56.78;99955.02;108138;1254;69162;-69
2023/07/24 02:41:39;;;;;;;13.30;9.60;;;;;;;20.66;56.88;99959.39;108153;1253;72702;-69
2023/07/24 02:44:07;;;;;;;16.70;11.30;;;;;;;20.49;57.33;99962.55;108088;1253;61701;-70
2023/07/24 02:46:34;;;;;;;15.40;10.40;;;;;;;20.41;57.60;99962.45;108141;1256;60309;-68
2023/07/24 02:49:02;;;;;;;14.50;11.70;;;;;;;20.38;57.85;99962.33;108139;1253;71831;-68
2023/07/24 02:51:29;;;;;;;15.00;11.70;;;;;;;20.57;57.47;99960.30;108140;1254;70129;-68
2023/07/24 02:53:56;;;;;;;14.20;10.50;;;;;;;20.62;57.41;99958.66;108022;1254;71160;-67
2023/07/24 02:56:24;;;;;;;15.30;11.90;;;;;;;20.76;57.37;99960.89;108144;1254;60457;-69
2023/07/24 02:58:51;;;;;;;15.60;11.00;;;;;;;20.94;57.09;99960.89;108155;1256;58946;-70
2023/07/24 03:01:18;;;;;;;14.40;9.80;;;;;;;21.06;57.01;99960.02;108084;1254;73878;-68
2023/07/24 03:03:46;;;;;;;19.80;11.90;;;;;;;21.15;56.94;99963.59;108198;1254;68781;-69
2023/07/24 03:06:13;;;;;;;18.20;11.00;;;;;;;20.92;58.03;99957.06;108180;1254;71778;-70
2023/07/24 03:08:40;;;;;;;19.50;11.70;;;;;;;21.17;57.61;99958.20;108115;1253;61841;-68
2023/07/24 03:11:08;;;;;;;16.10;11.40;;;;;;;21.14;58.10;99958.45;108224;1253;60151;-68
2023/07/24 03:13:36;;;;;;;13.60;10.70;;;;;;;21.36;57.89;99960.77;108115;1252;73830;-68
2023/07/24 03:16:04;;;;;;;16.90;11.50;;;;;;;21.56;57.70;99960.48;108043;1254;70332;-67
2023/07/24 03:18:31;;;;;;;17.20;11.00;;;;;;;21.63;57.76;99965.23;108112;1257;72658;-67
2023/07/24 03:20:59;;;;;;;17.00;11.70;;;;;;;21.81;57.42;99962.59;108305;1253;60393;-69
2023/07/24 03:23:26;;;;;;;16.30;11.20;;;;;;;21.90;57.22;99958.38;108249;1253;59149;-69
2023/07/24 03:25:54;;;;;;;15.60;10.00;;;;;;;22.03;56.83;99958.41;108173;1254;72664;-66
2023/07/24 03:28:21;;;;;;;15.70;11.40;;;;;;;22.09;56.50;99952.34;108173;1254;69273;-67
2023/07/24 03:30:48;;;;;;;14.50;11.00;;;;;;;22.00;56.39;99949.52;108128;1253;72435;-68
2023/07/24 03:33:16;;;;;;;12.50;9.10;;;;;;;22.15;56.10;99947.14;108199;1253;61593;-68
2023/07/24 03:35:43;;;;;;;17.50;10.20;;;;;;;22.35;55.71;99943.95;108158;1253;60367;-68
2023/07/24 03:38:11;;;;;;;14.40;8.90;;;;;;;22.64;54.96;99942.23;108027;1253;73876;-69
2023/07/24 03:40:38;;;;;;;18.10;9.30;;;;;;;22.93;54.64;99942.83;108046;1254;70693;-69
2023/07/24 03:43:06;;;;;;;15.70;9.30;;;;;;;23.24;53.99;99944.17;108142;1254;72701;-69
2023/07/24 03:45:33;;;;;;;11.20;8.40;;;;;;;23.75;52.59;99941.53;108139;1253;60781;-69
2023/07/24 03:48:00;;;;;;;15.50;8.60;;;;;;;24.36;51.20;99937.23;108161;1253;60061;-68
2023/07/24 03:50:29;;;;;;;10.70;7.60;;;;;;;24.93;49.79;99936.48;108096;1256;73847;-69
2023/07/24 03:52:56;;;;;;;11.40;8.70;;;;;;;25.48;48.70;99936.35;108150;1254;69974;-69
2023/07/24 03:55:23;;;;;;;13.20;8.20;;;;;;;25.63;47.91;99935.48;108214;1254;72421;-69
2023/07/24 03:57:51;;;;;;;10.60;7.90;;;;;;;25.75;47.76;99931.23;108186;1254;61674;-69
2023/07/24 04:00:18;;;;;;;14.40;8.70;;;;;;;25.99;46.52;99927.67;108183;1254;60335;-70
2023/07/24 04:02:46;;;;;;;13.90;8.70;;;;;;;25.91;46.22;99926.00;108235;1252;73885;-68
2023/07/24 04:05:14;;;;;;;11.00;8.30;;;;;;;25.97;46.23;99928.61;108160;1253;70140;-69
2023/07/24 04:07:41;;;;;;;24.10;9.40;;;;;;;26.27;45.77;99923.41;108077;1254;72896;-69
2023/07/24 04:10:09;;;;;;;14.60;7.30;;;;;;;26.56;45.46;99919.13;108200;1253;60533;-68
2023/07/24 04:12:36;;;;;;;14.40;8.80;;;;;;;26.98;44.27;99915.41;108178;1253;60321;-69
2023/07/24 04:15:04;;;;;;;12.10;7.90;;;;;;;27.29;43.12;99915.45;108087;1253;73132;-69
2023/07/24 04:17:32;;;;;;;13.20;8.20;;;;;;;27.58;42.41;99912.47;108205;1256;70065;-71
2023/07/24 04:20:00;;;;;;;12.50;8.00;;;;;;;27.73;42.30;99914.30;108103;1256;72727;-70
2023/07/24 04:22:27;;;;;;;11.90;6.30;;;;;;;27.87;41.83;99914.65;108102;1253;62158;-69
2023/07/24 04:24:54;;;;;;;12.20;7.50;;;;;;;28.06;41.12;99909.95;107984;1253;260638;-69
2023/07/24 04:28:11;;;;;;;10.90;6.50;;;;;;;26.61;44.23;99912.98;104931;1289;601539;-68
2023/07/24 04:30:38;;;;;;;11.90;6.50;;;;;;;27.93;41.61;99908.10;107261;1264;61712;-70
2023/07/24 04:33:06;;;;;;;16.50;7.30;;;;;;;28.44;40.75;99903.28;107759;1260;59951;-69
2023/07/24 04:35:33;;;;;;;10.30;6.90;;;;;;;28.73;40.38;99906.02;107760;1257;72295;-69
2023/07/24 04:38:01;;;;;;;11.40;6.90;;;;;;;29.21;39.44;99908.15;107768;1257;68800;-68
2023/07/24 04:40:28;;;;;;;11.40;6.70;;;;;;;29.42;38.99;99910.91;107737;1257;71466;-69
2023/07/24 04:42:55;;;;;;;8.30;5.40;;;;;;;29.53;38.82;99909.73;107680;1254;286176;-68
2023/07/24 04:45:23;;;;;;;8.50;5.30;;;;;;;29.60;37.20;99906.92;107860;1254;59243;-71
2023/07/24 04:47:50;;;;;;;6.20;5.30;;;;;;;29.75;36.87;99899.83;108042;1253;71442;-69
2023/07/24 04:50:18;;;;;;;9.00;6.00;;;;;;;29.72;36.92;99901.53;108061;1254;70611;-72
2023/07/24 04:52:45;;;;;;;6.70;4.60;;;;;;;29.85;36.78;99903.65;108124;1253;72695;-70
2023/07/24 04:55:12;;;;;;;10.10;4.90;;;;;;;29.76;36.42;99899.23;108177;1253;59498;-69
2023/07/24 04:57:40;;;;;;;8.50;4.90;;;;;;;29.82;35.94;99901.48;108042;1253;60040;-69
2023/07/24 05:00:09;;;;;;;8.60;4.70;;;;;;;29.99;35.52;99900.60;108065;1253;71010;-67
2023/07/24 05:02:36;;;;;;;7.00;4.70;;;;;;;30.28;35.35;99899.54;108093;1254;70110;-69
2023/07/24 05:05:04;;;;;;;6.50;4.50;;;;;;;30.46;34.88;99896.00;108099;1253;71591;-70
2023/07/24 05:07:31;;;;;;;9.60;5.00;;;;;;;30.56;34.87;99897.20;108113;1254;60067;-69
2023/07/24 05:09:59;;;;;;;8.20;4.60;;;;;;;30.72;34.38;99897.70;108123;1253;59371;-69
2023/07/24 05:12:27;;;;;;;8.70;4.70;;;;;;;30.82;33.87;99893.54;108044;1253;73607;-70
2023/07/24 05:14:54;;;;;;;11.20;5.40;;;;;;;30.72;34.22;99889.46;108045;1253;69945;-70
2023/07/24 05:17:21;;;;;;;12.10;4.60;;;;;;;30.83;34.22;99882.77;108095;1253;72837;-69
2023/07/24 05:19:49;;;;;;;8.40;4.60;;;;;;;30.91;33.74;99882.61;108125;1253;59839;-70
2023/07/24 05:22:16;;;;;;;10.90;5.10;;;;;;;30.94;34.05;99883.69;108157;1253;59244;-68
2023/07/24 05:24:44;;;;;;;8.40;5.10;;;;;;;31.25;33.56;99883.14;108120;1254;73185;-70
2023/07/24 05:27:12;;;;;;;15.20;4.50;;;;;;;31.45;33.27;99884.02;108072;1253;69123;-68
2023/07/24 05:29:40;;;;;;;7.50;4.30;;;;;;;31.61;32.94;99883.23;108085;1254;72089;-70
2023/07/24 05:32:07;;;;;;;11.10;4.40;;;;;;;31.81;32.68;99880.06;108100;1254;59500;-70
2023/07/24 05:34:34;;;;;;;11.70;4.90;;;;;;;31.89;32.59;99880.45;108048;1252;60235;-70
2023/07/24 05:37:02;;;;;;;12.60;4.70;;;;;;;31.96;32.25;99881.28;108031;1253;73031;-70
2023/07/24 05:39:29;;;;;;;10.70;4.20;;;;;;;31.73;32.09;99879.19;108022;1253;68642;-69
2023/07/24 05:41:57;;;;;;;9.40;4.70;;;;;;;31.66;32.24;99878.27;108013;1253;72669;-69
2023/07/24 05:44:24;;;;;;;10.80;4.40;;;;;;;31.65;32.36;99880.70;108027;1254;60101;-71
2023/07/24 05:46:51;;;;;;;9.30;4.10;;;;;;;31.68;32.39;99880.36;108026;1258;59509;-70
2023/07/24 05:49:19;;;;;;;8.00;4.10;;;;;;;31.93;32.15;99882.20;108063;1258;71724;-70
2023/07/24 05:51:46;;;;;;;8.50;4.20;;;;;;;31.97;32.27;99880.95;108015;1254;70561;-70
2023/07/24 05:54:13;;;;;;;11.30;4.30;;;;;;;32.07;31.97;99873.77;108012;1254;72860;-70
2023/07/24 05:56:41;;;;;;;7.70;4.00;;;;;;;32.30;31.90;99869.98;107999;1254;60036;-71
2023/07/24 05:59:08;;;;;;;8.60;4.30;;;;;;;32.26;31.61;99862.90;108108;1254;59957;-68
2023/07/24 06:01:35;;;;;;;5.40;3.90;;;;;;;32.07;31.47;99857.79;108072;1254;72931;-70
2023/07/24 06:04:03;;;;;;;12.20;4.30;;;;;;;31.94;31.76;99855.72;108059;1254;68155;-68
2023/07/24 06:06:31;;;;;;;7.60;4.10;;;;;;;31.75;32.09;99852.52;108101;1254;71186;-70
2023/07/24 06:08:59;;;;;;;8.50;3.80;;;;;;;31.87;32.10;99848.92;108078;1253;60155;-69
2023/07/24 06:11:27;;;;;;;7.90;3.90;;;;;;;32.00;31.97;99844.05;108071;1254;60353;-68
2023/07/24 06:13:54;;;;;;;5.80;3.70;;;;;;;32.01;31.64;99843.78;108134;1253;72876;-67
2023/07/24 06:16:22;;;;;;;4.80;3.70;;;;;;;32.18;31.49;99837.38;108005;1254;70142;-69
2023/07/24 06:18:49;;;;;;;8.10;3.40;;;;;;;32.41;30.81;99835.77;108070;1256;72162;-69
2023/07/24 06:21:17;;;;;;;7.20;3.80;;;;;;;32.54;30.56;99831.04;108041;1253;60009;-69
2023/07/24 06:23:44;;;;;;;7.50;3.10;;;;;;;32.72;30.42;99832.58;108123;1254;59542;-68
2023/07/24 06:26:11;;;;;;;7.10;4.20;;;;;;;32.90;30.11;99833.30;108203;1254;71842;-69
2023/07/24 06:28:39;;;;;;;7.40;3.60;;;;;;;32.97;29.93;99832.13;108098;1254;70130;-68
2023/07/24 06:31:06;;;;;;;6.10;3.40;;;;;;;32.90;29.70;99829.94;108149;1254;72673;-70
2023/07/24 06:33:33;;;;;;;6.90;3.60;;;;;;;32.95;29.51;99828.81;108123;1253;59643;-70
2023/07/24 06:36:01;;;;;;;7.70;3.40;;;;;;;33.13;29.33;99826.64;108076;1254;60011;-69
2023/07/24 06:38:28;;;;;;;6.60;3.20;;;;;;;33.50;29.07;99822.67;108163;1254;64127;-69
2023/07/24 06:40:56;;;;;;;8.60;3.40;;;;;;;33.67;29.09;99824.29;108139;1254;68739;-69
2023/07/24 06:43:23;;;;;;;6.80;3.40;;;;;;;33.81;28.79;99820.91;108091;1253;63801;-70
2023/07/24 06:45:51;;;;;;;5.30;3.70;;;;;;;33.73;28.79;99816.03;108077;1253;59602;-71
2023/07/24 06:48:18;;;;;;;11.00;3.70;;;;;;;33.78;28.56;99815.69;108106;1253;59530;-69
2023/07/24 06:50:46;;;;;;;5.70;3.60;;;;;;;33.59;28.72;99813.80;108112;1254;64138;-70
2023/07/24 06:53:13;;;;;;;8.30;4.10;;;;;;;33.54;28.80;99812.84;108046;1254;70283;-69
2023/07/24 06:55:41;;;;;;;8.80;3.30;;;;;;;33.90;29.01;99807.77;108073;1254;62495;-70
2023/07/24 06:58:08;;;;;;;8.60;3.60;;;;;;;34.27;28.55;99805.45;108095;1253;59570;-71
2023/07/24 07:00:36;;;;;;;8.70;3.70;;;;;;;34.37;28.21;99806.96;108156;1254;59368;-72
2023/07/24 07:03:03;;;;;;;6.60;3.50;;;;;;;34.65;27.94;99804.08;108096;1254;64218;-70
2023/07/24 07:05:34;;;;;;;6.00;3.60;;;;;;;34.80;27.50;99803.34;108077;1254;61333;-71
2023/07/24 07:08:01;;;;;;;6.00;3.70;;;;;;;34.91;27.11;99806.99;108075;1254;63756;-70
2023/07/24 07:10:30;;;;;;;6.40;3.70;;;;;;;34.71;27.49;99801.99;108073;1254;60898;-69
2023/07/24 07:12:58;;;;;;;5.80;3.50;;;;;;;34.82;27.31;99803.46;108153;1253;59541;-71
2023/07/24 07:15:25;;;;;;;5.70;3.60;;;;;;;35.05;27.13;99805.32;108145;1259;64143;-70
2023/07/24 07:17:52;;;;;;;5.10;3.80;;;;;;;34.82;27.13;99798.86;108099;1254;61377;-70
2023/07/24 07:20:20;;;;;;;5.80;3.50;;;;;;;34.98;27.06;99799.27;108082;1254;63734;-71
2023/07/24 07:22:47;;;;;;;5.70;3.70;;;;;;;35.23;26.88;99797.29;108053;1259;60123;-71
2023/07/24 07:25:15;;;;;;;5.80;3.70;;;;;;;35.45;26.63;99790.61;108015;1254;59608;-70
2023/07/24 07:27:42;;;;;;;5.10;3.50;;;;;;;35.78;26.19;99791.32;107956;1254;64167;-70
2023/07/24 07:30:10;;;;;;;5.40;3.40;;;;;;;36.30;25.28;99784.34;107966;1253;60220;-69
2023/07/24 07:32:37;;;;;;;7.30;3.70;;;;;;;36.75;24.79;99786.34;107979;1254;62485;-70
2023/07/24 07:35:06;;;;;;;6.70;3.80;;;;;;;37.05;24.44;99783.16;107940;1254;59208;-71
2023/07/24 07:37:33;;;;;;;4.30;3.20;;;;;;;37.13;24.31;99787.00;107962;1254;59365;-71
2023/07/24 07:40:01;;;;;;;6.50;4.20;;;;;;;37.25;23.88;99788.38;108125;1253;62918;-72
2023/07/24 07:42:28;;;;;;;5.70;3.80;;;;;;;37.34;24.04;99785.64;108005;1254;60105;-70
2023/07/24 07:44:56;;;;;;;7.80;3.10;;;;;;;37.34;23.67;99782.20;107934;1254;62645;-70
2023/07/24 07:47:23;;;;;;;5.60;3.40;;;;;;;37.60;23.71;99782.05;108014;1254;59534;-71
2023/07/24 07:49:51;;;;;;;7.20;3.60;;;;;;;37.59;23.77;99779.55;107997;1254;59524;-70
2023/07/24 07:52:20;;;;;;;6.80;3.10;;;;;;;37.54;23.66;99775.66;108011;1254;64224;-71
2023/07/24 07:54:48;;;;;;;7.00;3.50;;;;;;;36.95;24.25;99775.51;108005;1254;60215;-71
2023/07/24 07:57:16;;;;;;;7.90;3.80;;;;;;;36.70;23.99;99774.84;108003;1256;63755;-71
2023/07/24 07:59:43;;;;;;;6.40;3.80;;;;;;;36.63;24.02;99778.42;107969;1254;59927;-72
2023/07/24 08:02:10;;;;;;;5.50;3.40;;;;;;;36.31;24.54;99779.33;108097;1259;59013;-69
2023/07/24 08:04:38;;;;;;;8.60;3.70;;;;;;;36.28;24.62;99781.98;107993;1254;72035;-72
2023/07/24 08:07:05;;;;;;;9.60;3.70;;;;;;;36.41;24.72;99779.08;107965;1253;60326;-70
2023/07/24 08:09:33;;;;;;;5.00;3.80;;;;;;;36.66;24.56;99775.42;107954;1254;63711;-69
2023/07/24 08:12:00;;;;;;;5.30;3.30;;;;;;;37.00;24.18;99779.20;107971;1256;59966;-69
2023/07/24 08:14:28;;;;;;;6.00;3.60;;;;;;;37.08;24.17;99777.79;108009;1254;59649;-70
2023/07/24 08:16:55;;;;;;;7.40;3.50;;;;;;;36.97;24.35;99775.65;108023;1259;64286;-70
2023/07/24 08:19:23;;;;;;;8.70;4.10;;;;;;;36.99;24.52;99777.86;108038;1254;61382;-70
2023/07/24 08:21:50;;;;;;;4.60;3.60;;;;;;;37.42;23.89;99775.34;107915;1254;63721;-69
2023/07/24 08:24:17;;;;;;;5.90;4.10;;;;;;;37.91;22.87;99777.57;108048;1254;59790;-70
2023/07/24 08:26:45;;;;;;;8.90;4.70;;;;;;;37.70;22.73;99781.24;108074;1254;59583;-70
2023/07/24 08:29:12;;;;;;;10.60;5.40;;;;;;;37.46;23.19;99774.53;108049;1254;64392;-71
2023/07/24 08:31:40;;;;;;;11.60;4.30;;;;;;;37.53;23.14;99769.96;108046;1254;62053;-71
2023/07/24 08:34:07;;;;;;;7.10;3.50;;;;;;;37.28;23.38;99776.29;108054;1257;63756;-70
2023/07/24 08:36:37;;;;;;;8.10;4.10;;;;;;;37.01;23.64;99777.32;108023;1259;60364;-72
2023/07/24 08:39:04;;;;;;;9.00;4.30;;;;;;;36.79;24.11;99773.27;108012;1254;60582;-70
2023/07/24 08:41:34;;;;;;;7.20;4.10;;;;;;;37.08;23.96;99769.95;108033;1254;65223;-70
2023/07/24 08:44:02;;;;;;;7.50;4.20;;;;;;;37.44;23.62;99766.77;108015;1259;61439;-70
2023/07/24 08:46:29;;;;;;;8.80;4.20;;;;;;;37.73;23.34;99764.90;108011;1255;63803;-69
2023/07/24 08:48:57;;;;;;;9.40;4.30;;;;;;;37.60;23.48;99767.11;108076;1254;60416;-70
2023/07/24 08:51:24;;;;;;;10.20;3.50;;;;;;;37.97;23.42;99763.17;107953;1253;60304;-70
2023/07/24 08:53:52;;;;;;;14.70;5.00;;;;;;;37.76;23.37;99767.10;107859;1253;63902;-71
2023/07/24 08:56:19;;;;;;;7.30;4.20;;;;;;;37.73;23.62;99765.17;108053;1253;61369;-71
2023/07/24 08:58:46;;;;;;;10.30;4.00;;;;;;;37.66;23.87;99761.61;108083;1253;62550;-71
2023/07/24 09:01:14;;;;;;;7.00;4.10;;;;;;;37.95;23.36;99753.16;107947;1254;60328;-71
2023/07/24 09:03:41;;;;;;;9.60;4.30;;;;;;;38.76;22.89;99752.91;108104;1254;60374;-70
2023/07/24 09:06:09;;;;;;;8.30;4.10;;;;;;;38.97;22.85;99754.91;108101;1254;64957;-72
2023/07/24 09:08:37;;;;;;;8.80;4.20;;;;;;;39.07;22.80;99754.77;108081;1254;61836;-71
2023/07/24 09:11:06;;;;;;;8.10;4.30;;;;;;;39.36;22.36;99745.61;108037;1257;63722;-69
2023/07/24 09:13:35;;;;;;;6.70;4.20;;;;;;;39.41;22.51;99744.08;108141;1253;60319;-70
2023/07/24 09:16:02;;;;;;;6.90;4.30;;;;;;;39.50;22.17;99741.23;108118;1253;60368;-72
2023/07/24 09:18:40;;;;;;;7.20;4.50;;;;;;;39.85;21.61;99734.57;108083;1253;64938;-70
2023/07/24 09:21:12;;;;;;;8.00;3.90;;;;;;;40.05;21.67;99730.49;108076;1253;60405;-71
2023/07/24 09:23:40;;;;;;;7.70;4.20;;;;;;;39.68;22.10;99733.95;107923;1257;63842;-70
2023/07/24 09:26:08;;;;;;;9.00;4.40;;;;;;;39.05;22.55;99737.95;107963;1256;60877;-71
2023/07/24 09:28:36;;;;;;;6.50;4.10;;;;;;;38.90;22.61;99735.91;107916;1254;60351;-71
2023/07/24 09:31:04;;;;;;;7.70;4.80;;;;;;;38.66;23.21;99729.39;108050;1254;64986;-72
2023/07/24 09:33:39;;;;;;;12.60;4.50;;;;;;;38.49;23.62;99735.26;107916;1254;62112;-71
2023/07/24 09:36:10;;;;;;;14.50;5.00;;;;;;;38.65;23.49;99725.67;108043;1259;64352;-71
2023/07/24 09:38:38;;;;;;;9.20;4.50;;;;;;;38.77;23.49;99727.05;107975;1254;59262;-70
2023/07/24 09:41:06;;;;;;;10.60;4.20;;;;;;;38.82;23.20;99721.41;107940;1254;59659;-72
2023/07/24 09:43:35;;;;;;;7.00;4.20;;;;;;;38.76;23.12;99721.92;107988;1254;74735;-71
2023/07/24 09:46:08;;;;;;;10.10;3.90;;;;;;;38.71;23.25;99719.38;107894;1254;60348;-71
2023/07/24 09:48:37;;;;;;;7.30;4.50;;;;;;;38.58;23.41;99718.30;107951;1254;63739;-69
2023/07/24 09:51:12;;;;;;;7.70;4.40;;;;;;;38.56;23.46;99713.48;107893;1254;60434;-70
2023/07/24 09:53:44;;;;;;;9.10;4.30;;;;;;;38.44;23.95;99712.35;107839;1253;59230;-70
2023/07/24 09:56:11;;;;;;;8.00;4.70;;;;;;;38.50;23.71;99713.17;107940;1254;64966;-70
2023/07/24 09:58:40;;;;;;;7.40;4.50;;;;;;;38.71;23.64;99710.86;107724;1254;60384;-71
2023/07/24 10:01:08;;;;;;;9.10;4.90;;;;;;;38.63;23.75;99705.11;107934;1254;65946;-70
2023/07/24 10:03:40;;;;;;;8.10;4.10;;;;;;;38.72;23.94;99699.84;107937;1254;60312;-71
2023/07/24 10:06:14;;;;;;;8.10;4.30;;;;;;;38.80;23.55;99696.02;107937;1254;60188;-70
2023/07/24 10:08:42;;;;;;;7.20;4.40;;;;;;;38.64;23.37;99696.17;107814;1254;64943;-71
2023/07/24 10:11:11;;;;;;;9.00;4.10;;;;;;;38.89;23.38;99697.86;107992;1259;61457;-70
2023/07/24 10:13:39;;;;;;;8.60;4.40;;;;;;;39.28;22.83;99697.25;107954;1254;62417;-69
2023/07/24 10:16:07;;;;;;;8.80;4.30;;;;;;;39.39;22.73;99695.89;108069;1254;60383;-70
2023/07/24 10:18:35;;;;;;;7.70;4.30;;;;;;;39.30;22.75;99691.33;107993;1253;59043;-70
2023/07/24 10:21:07;;;;;;;6.60;4.10;;;;;;;39.10;23.20;99691.06;108071;1254;63797;-70
2023/07/24 10:23:35;;;;;;;7.90;4.20;;;;;;;39.39;23.19;99691.55;107952;1254;60389;-70
2023/07/24 10:26:06;;;;;;;7.50;4.10;;;;;;;39.13;23.19;99685.66;107937;1254;63748;-69
2023/07/24 10:28:34;;;;;;;;;;;;;;;39.04;23.61;99681.19;107940;1254;59041;-70
2023/07/24 10:31:02;;;;;;;8.40;4.30;;;;;;;38.96;23.41;99683.81;107948;1254;60371;-71
2023/07/24 10:33:30;;;;;;;6.60;4.50;;;;;;;39.42;23.04;99679.20;107951;1254;64892;-69
2023/07/24 10:36:13;;;;;;;7.00;4.10;;;;;;;39.89;22.73;99679.92;107999;1254;60304;-70
2023/07/24 10:38:41;;;;;;;7.00;4.00;;;;;;;40.10;22.33;99674.67;107933;1256;62804;-70
2023/07/24 10:41:09;;;;;;;6.50;4.30;;;;;;;40.55;21.89;99669.58;108018;1254;60413;-71
2023/07/24 10:43:44;;;;;;;10.30;4.30;;;;;;;40.70;21.93;99669.42;108025;1253;60219;-72
2023/07/24 10:46:16;;;;;;;5.80;3.90;;;;;;;40.81;21.72;99668.06;108005;1254;65342;-69
2023/07/24 10:48:45;;;;;;;8.80;4.00;;;;;;;40.65;21.87;99667.88;108002;1254;61061;-70
2023/07/24 10:51:14;;;;;;;7.50;4.40;;;;;;;40.60;21.51;99659.58;107967;1254;62481;-69
2023/07/24 10:53:45;;;;;;;5.10;3.80;;;;;;;40.67;21.90;99662.55;107987;1254;60443;-69
2023/07/24 10:56:13;;;;;;;6.30;4.20;;;;;;;40.85;21.02;99659.37;108008;1254;60316;-70
2023/07/24 10:58:40;;;;;;;8.60;4.50;;;;;;;40.87;21.39;99662.41;108038;1254;64948;-71
2023/07/24 11:01:08;;;;;;;7.70;4.10;;;;;;;40.37;21.68;99662.93;107907;1254;61635;-71
2023/07/24 11:03:37;;;;;;;7.50;4.00;;;;;;;40.21;22.02;99663.75;107982;1254;62847;-72
2023/07/24 11:06:04;;;;;;;6.50;4.10;;;;;;;39.62;22.49;99660.19;108020;1254;61173;-71
2023/07/24 11:08:33;;;;;;;6.80;4.20;;;;;;;39.50;22.69;99656.59;108022;1254;59233;-71
2023/07/24 11:11:01;;;;;;;10.40;4.30;;;;;;;39.81;22.44;99654.38;107843;1253;65112;-71
2023/07/24 11:13:29;;;;;;;9.90;4.30;;;;;;;39.66;22.89;99646.95;107986;1259;60376;-71
2023/07/24 11:15:56;;;;;;;7.70;4.00;;;;;;;39.66;22.65;99644.25;107965;1255;63990;-71
2023/07/24 11:18:26;;;;;;;6.60;4.00;;;;;;;39.23;22.98;99641.27;107820;1254;60431;-70
2023/07/24 11:21:11;;;;;;;6.80;4.00;;;;;;;38.73;23.31;99639.77;107831;1254;59579;-71
2023/07/24 11:23:52;;;;;;;7.80;4.40;;;;;;;38.50;23.75;99637.52;107931;1254;63722;-71